createdAt,value
2022-10-10T03:01:35.610Z,9.40
2022-10-10T03:04:02.814Z,9.40
2022-10-10T03:06:30.221Z,9.30
2022-10-10T03:08:57.357Z,9.30
2022-10-10T03:11:24.590Z,9.40
2022-10-10T03:13:51.735Z,9.50
2022-10-10T03:16:18.912Z,9.50
2022-10-10T03:18:46.107Z,9.50
2022-10-10T03:21:13.371Z,9.60
2022-10-10T03:23:41.487Z,9.60
2022-10-10T03:26:08.632Z,9.70
2022-10-10T03:28:37.402Z,9.70
2022-10-10T03:31:04.830Z,9.70
2022-10-10T03:33:32.141Z,9.70
2022-10-10T03:35:59.236Z,9.80
2022-10-10T03:38:26.435Z,9.90
2022-10-10T03:40:53.801Z,10.00
2022-10-10T03:43:21.013Z,10.00
2022-10-10T03:45:48.301Z,9.90
2022-10-10T03:48:15.680Z,10.00
2022-10-10T03:50:42.851Z,10.00
2022-10-10T03:53:10.305Z,10.00
2022-10-10T03:55:40.503Z,10.10
2022-10-10T03:58:08.864Z,10.10
2022-10-10T04:00:36.365Z,10.20
2022-10-10T04:03:06.699Z,10.20
2022-10-10T04:05:38.309Z,10.20
2022-10-10T04:08:05.987Z,10.20
2022-10-10T04:10:33.143Z,10.10
2022-10-10T04:13:00.333Z,10.10
2022-10-10T04:15:27.549Z,10.20
2022-10-10T04:17:54.694Z,10.20
2022-10-10T04:20:21.965Z,10.30
2022-10-10T04:22:49.599Z,10.30
2022-10-10T04:25:17.173Z,10.30
2022-10-10T04:27:44.380Z,10.40
2022-10-10T04:30:12.130Z,10.40
2022-10-10T04:32:39.322Z,10.40
2022-10-10T04:35:06.760Z,10.50
2022-10-10T04:37:34.830Z,10.50
2022-10-10T04:40:02.080Z,10.50
2022-10-10T04:42:29.294Z,10.60
2022-10-10T04:44:56.504Z,10.60
2022-10-10T04:47:23.941Z,10.60
2022-10-10T04:49:51.126Z,10.50
2022-10-10T04:52:18.252Z,10.60
2022-10-10T04:54:45.556Z,10.60
2022-10-10T04:57:12.730Z,10.70
2022-10-10T04:59:39.889Z,10.70
2022-10-10T05:02:07.130Z,10.60
2022-10-10T05:04:34.262Z,10.80
2022-10-10T05:07:01.456Z,10.70
2022-10-10T05:09:28.667Z,10.80
2022-10-10T05:11:55.847Z,10.80
2022-10-10T05:14:23.029Z,10.70
2022-10-10T05:16:50.247Z,10.70
2022-10-10T05:19:17.465Z,10.80
2022-10-10T05:21:44.749Z,10.80
2022-10-10T05:24:11.930Z,10.80
2022-10-10T05:26:43.081Z,10.80
2022-10-10T05:29:10.563Z,10.80
2022-10-10T05:31:37.721Z,10.80
2022-10-10T05:34:04.871Z,10.80
2022-10-10T05:36:32.076Z,10.80
2022-10-10T05:39:00.175Z,10.70
2022-10-10T05:41:27.516Z,10.60
2022-10-10T05:43:54.641Z,10.70
2022-10-10T05:46:24.601Z,10.60
2022-10-10T05:48:53.220Z,10.70
2022-10-10T05:51:21.145Z,10.80
2022-10-10T05:53:48.643Z,10.80
2022-10-10T05:56:17.109Z,10.90
2022-10-10T05:58:44.832Z,11.00
2022-10-10T06:01:12.050Z,11.10
2022-10-10T06:03:39.282Z,11.10
2022-10-10T06:08:34.923Z,11.20
2022-10-10T06:11:11.198Z,11.20
2022-10-10T06:16:06.374Z,11.40
2022-10-10T06:18:33.548Z,11.40
2022-10-10T06:21:07.379Z,11.60
2022-10-10T06:23:34.838Z,11.60
2022-10-10T06:26:02.027Z,11.60
2022-10-10T06:28:29.257Z,11.60
2022-10-10T06:31:04.489Z,11.60
2022-10-10T06:33:32.673Z,11.70
2022-10-10T06:36:03.529Z,11.80
2022-10-10T06:38:30.727Z,11.80
2022-10-10T06:41:02.712Z,12.00
2022-10-10T06:43:29.968Z,12.00
2022-10-10T06:45:57.561Z,12.10
2022-10-10T06:48:25.004Z,12.10
2022-10-10T06:51:00.183Z,12.20
2022-10-10T06:53:27.909Z,12.30
2022-10-10T06:55:55.677Z,12.40
2022-10-10T06:58:23.994Z,12.50
2022-10-10T07:00:57.267Z,12.50
2022-10-10T07:03:24.497Z,12.60
2022-10-10T07:05:53.884Z,12.60
2022-10-10T07:08:21.594Z,12.70
2022-10-10T07:10:48.839Z,12.80
2022-10-10T07:13:16.458Z,12.80
2022-10-10T07:15:44.097Z,12.90
2022-10-10T07:18:11.796Z,12.80
2022-10-10T07:20:39.995Z,13.00
2022-10-10T07:23:07.162Z,13.20
2022-10-10T07:25:34.815Z,13.40
2022-10-10T07:28:01.990Z,13.50
2022-10-10T07:30:29.139Z,13.60
2022-10-10T07:32:56.358Z,13.60
2022-10-10T07:35:26.207Z,13.60
2022-10-10T07:37:55.781Z,13.70
2022-10-10T07:40:23.454Z,13.80
2022-10-10T07:42:51.031Z,14.00
2022-10-10T07:45:18.441Z,14.30
2022-10-10T07:47:45.633Z,14.30
2022-10-10T07:50:13.704Z,14.50
2022-10-10T07:52:41.029Z,14.70
2022-10-10T07:55:09.253Z,14.90
2022-10-10T07:57:37.011Z,14.90
2022-10-10T08:00:09.059Z,15.00
2022-10-10T08:02:36.273Z,15.10
2022-10-10T08:05:03.653Z,15.20
2022-10-10T08:07:31.081Z,15.30
2022-10-10T08:09:58.549Z,15.50
2022-10-10T08:12:25.851Z,15.50
2022-10-10T08:14:52.996Z,15.60
2022-10-10T08:17:20.299Z,15.70
2022-10-10T08:19:47.424Z,15.90
2022-10-10T08:22:14.581Z,16.00
2022-10-10T08:24:41.849Z,16.30
2022-10-10T08:27:08.970Z,16.40
2022-10-10T08:29:36.122Z,16.50
2022-10-10T08:32:03.318Z,16.60
2022-10-10T08:34:30.529Z,16.80
2022-10-10T08:36:57.757Z,16.80
2022-10-10T08:39:25.012Z,16.80
2022-10-10T08:41:55.209Z,16.80
2022-10-10T08:44:27.527Z,16.80
2022-10-10T08:47:02.405Z,16.80
2022-10-10T08:50:01.823Z,16.90
2022-10-10T08:52:38.508Z,16.90
2022-10-10T08:55:33.968Z,17.10
2022-10-10T08:58:24.014Z,17.20
2022-10-10T09:01:15.712Z,17.30
2022-10-10T09:03:54.917Z,17.40
2022-10-10T09:06:52.846Z,17.30
2022-10-10T09:09:37.922Z,17.50
2022-10-10T09:12:27.598Z,17.70
2022-10-10T09:15:18.950Z,17.90
2022-10-10T09:17:55.840Z,17.90
2022-10-10T09:20:49.942Z,17.90
2022-10-10T09:23:36.848Z,17.90
2022-10-10T09:26:12.648Z,18.00
2022-10-10T09:28:48.997Z,18.10
2022-10-10T09:31:26.197Z,18.20
2022-10-10T09:34:16.256Z,18.30
2022-10-10T09:36:45.509Z,18.50
2022-10-10T09:39:35.374Z,18.50
2022-10-10T09:42:05.308Z,18.70
2022-10-10T09:44:32.921Z,18.90
2022-10-10T09:47:00.612Z,19.10
2022-10-10T09:49:29.526Z,19.00
2022-10-10T09:51:56.871Z,19.00
2022-10-10T09:54:25.084Z,19.20
2022-10-10T09:56:57.551Z,19.40
2022-10-10T09:59:45.964Z,19.60
2022-10-10T10:02:26.176Z,19.80
2022-10-10T10:04:54.742Z,20.00
2022-10-10T10:07:31.588Z,20.00
2022-10-10T10:10:10.767Z,20.00
2022-10-10T10:12:41.133Z,19.80
2022-10-10T10:15:37.065Z,20.00
2022-10-10T10:18:20.823Z,20.40
2022-10-10T10:20:50.227Z,20.70
2022-10-10T10:23:34.991Z,20.50
2022-10-10T10:26:06.373Z,20.60
2022-10-10T10:28:43.679Z,20.70
2022-10-10T10:31:19.479Z,20.90
2022-10-10T10:33:52.124Z,20.90
2022-10-10T10:36:28.817Z,21.00
2022-10-10T10:39:21.733Z,20.80
2022-10-10T10:41:48.832Z,20.60
2022-10-10T10:44:36.966Z,20.60
2022-10-10T10:47:34.384Z,20.50
2022-10-10T10:50:22.777Z,20.60
2022-10-10T10:53:16.773Z,20.50
2022-10-10T10:55:56.273Z,20.70
2022-10-10T11:02:43.693Z,21.10
2022-10-10T11:05:32.679Z,21.10
2022-10-10T11:08:24.060Z,20.90
2022-10-10T11:11:33.048Z,21.00
2022-10-10T11:14:02.851Z,21.20
2022-10-10T11:16:50.626Z,21.00
2022-10-10T11:19:27.516Z,21.00
2022-10-10T11:22:07.418Z,21.00
2022-10-10T11:24:51.331Z,21.00
2022-10-10T11:27:38.781Z,21.10
2022-10-10T11:30:14.473Z,21.20
2022-10-10T11:32:51.727Z,21.20
2022-10-10T11:35:43.042Z,21.10
2022-10-10T11:38:15.870Z,21.00
2022-10-10T11:40:46.012Z,21.20
2022-10-10T11:43:19.966Z,21.20
2022-10-10T11:45:55.013Z,21.20
2022-10-10T11:48:51.208Z,21.30
2022-10-10T11:51:27.504Z,21.30
2022-10-10T11:54:00.001Z,21.30
2022-10-10T11:56:34.647Z,21.30
2022-10-10T11:59:13.863Z,21.40
2022-10-10T12:01:50.319Z,21.60
2022-10-10T12:04:17.848Z,21.80
2022-10-10T12:06:52.735Z,22.00
2022-10-10T12:09:33.159Z,21.70
2022-10-10T12:12:06.087Z,21.60
2022-10-10T12:14:37.798Z,21.50
2022-10-10T12:17:05.531Z,21.50
2022-10-10T12:19:32.762Z,21.40
2022-10-10T12:22:04.062Z,21.50
2022-10-10T12:24:34.062Z,21.50
2022-10-10T12:27:01.151Z,21.30
2022-10-10T12:29:46.806Z,21.10
2022-10-10T12:32:20.272Z,21.20
2022-10-10T12:34:50.248Z,21.20
2022-10-10T12:37:21.114Z,21.20
2022-10-10T12:40:08.541Z,21.10
2022-10-10T12:42:47.567Z,21.20
2022-10-10T12:45:29.958Z,21.20
2022-10-10T12:48:21.481Z,21.20
2022-10-10T12:51:00.039Z,21.30
2022-10-10T12:53:31.294Z,21.30
2022-10-10T12:56:01.338Z,21.20
2022-10-10T12:58:30.891Z,21.30
2022-10-10T13:01:06.724Z,21.40
2022-10-10T13:03:42.576Z,21.40
2022-10-10T13:06:34.211Z,21.50
2022-10-10T13:09:03.847Z,21.50
2022-10-10T13:11:31.050Z,21.60
2022-10-10T13:13:58.242Z,21.60
2022-10-10T13:16:33.749Z,21.60
2022-10-10T13:19:01.474Z,21.70
2022-10-10T13:21:34.160Z,21.80
2022-10-10T13:24:06.091Z,21.80
2022-10-10T13:26:37.298Z,21.70
2022-10-10T13:29:27.616Z,21.40
2022-10-10T13:32:00.126Z,21.30
2022-10-10T13:34:32.529Z,21.10
2022-10-10T13:37:02.325Z,21.10
2022-10-10T13:39:32.360Z,21.20
2022-10-10T13:42:00.312Z,21.20
2022-10-10T13:44:33.194Z,21.30
2022-10-10T13:47:38.694Z,21.40
2022-10-10T13:50:31.922Z,21.40
2022-10-10T13:53:26.808Z,21.40
2022-10-10T13:55:59.826Z,21.60
2022-10-10T13:58:31.150Z,21.50
2022-10-10T14:01:01.198Z,21.50
2022-10-10T14:03:31.184Z,21.50
2022-10-10T14:05:58.728Z,21.50
2022-10-10T14:08:30.660Z,21.30
2022-10-10T14:10:57.950Z,21.20
2022-10-10T14:13:25.624Z,21.10
2022-10-10T14:15:53.226Z,20.90
2022-10-10T14:18:22.866Z,20.90
2022-10-10T14:20:50.717Z,20.90
2022-10-10T14:23:18.087Z,20.90
2022-10-10T14:25:48.402Z,20.90
2022-10-10T14:28:19.168Z,20.80
2022-10-10T14:30:46.474Z,20.80
2022-10-10T14:33:16.429Z,20.70
2022-10-10T14:35:45.205Z,20.70
2022-10-10T14:38:14.060Z,20.60
2022-10-10T14:40:47.106Z,20.70
2022-10-10T14:43:14.486Z,20.70
2022-10-10T14:45:41.577Z,20.60
2022-10-10T14:48:11.142Z,20.60
2022-10-10T14:50:44.117Z,20.60
2022-10-10T14:53:11.309Z,20.50
2022-10-10T14:55:43.126Z,20.40
2022-10-10T14:58:19.482Z,20.40
2022-10-10T15:00:47.420Z,20.20
2022-10-10T15:03:14.745Z,20.10
2022-10-10T15:05:42.217Z,20.10
2022-10-10T15:08:14.280Z,20.10
2022-10-10T15:10:42.564Z,20.10
2022-10-10T15:13:13.957Z,20.10
2022-10-10T15:15:41.664Z,20.00
2022-10-10T15:18:26.649Z,20.10
2022-10-10T15:20:56.574Z,20.00
2022-10-10T15:23:23.826Z,20.00
2022-10-10T15:25:50.983Z,20.00
2022-10-10T15:28:18.214Z,20.00
2022-10-10T15:30:46.301Z,20.10
2022-10-10T15:33:13.482Z,20.00
2022-10-10T15:36:07.428Z,20.00
2022-10-10T15:38:28.647Z,19.80
2022-10-10T15:41:05.572Z,19.80
2022-10-10T15:43:47.062Z,19.70
2022-10-10T15:46:14.331Z,19.50
2022-10-10T15:48:41.499Z,19.60
2022-10-10T15:51:09.006Z,19.50
2022-10-10T15:53:37.209Z,19.40
2022-10-10T15:56:10.284Z,19.30
2022-10-10T15:58:39.063Z,19.20
2022-10-10T16:01:14.605Z,19.20
2022-10-10T16:03:42.211Z,19.10
2022-10-10T16:08:41.478Z,19.10
2022-10-10T16:11:13.372Z,19.10
2022-10-10T16:13:41.513Z,19.00
2022-10-10T16:18:40.434Z,18.90
2022-10-10T16:21:11.104Z,18.90
2022-10-10T16:23:39.258Z,18.80
2022-10-10T16:26:08.933Z,18.70
2022-10-10T16:28:36.288Z,18.60
2022-10-10T16:31:05.775Z,18.50
2022-10-10T16:33:34.648Z,18.40
2022-10-10T16:36:07.353Z,18.30
2022-10-10T16:38:34.512Z,18.20
2022-10-10T16:41:04.522Z,18.00
2022-10-10T16:43:32.422Z,18.00
2022-10-10T16:46:03.890Z,17.90
2022-10-10T16:48:31.653Z,17.70
2022-10-10T16:51:03.597Z,17.60
2022-10-10T16:53:32.204Z,17.50
2022-10-10T16:56:01.491Z,17.40
2022-10-10T16:58:29.580Z,17.40
2022-10-10T17:00:56.975Z,17.20
2022-10-10T17:03:25.223Z,17.20
2022-10-10T17:06:06.737Z,17.10
2022-10-10T17:08:33.900Z,17.00
2022-10-10T17:11:01.427Z,16.90
2022-10-10T17:13:28.998Z,16.80
2022-10-10T17:15:57.232Z,16.80
2022-10-10T17:18:26.154Z,16.60
2022-10-10T17:20:53.261Z,16.60
2022-10-10T17:23:20.797Z,16.50
2022-10-10T17:25:47.968Z,16.40
2022-10-10T17:28:16.053Z,16.30
2022-10-10T17:30:48.504Z,16.30
2022-10-10T17:33:17.702Z,16.10
2022-10-10T17:35:48.264Z,15.90
2022-10-10T17:38:38.520Z,15.70
2022-10-10T17:41:04.403Z,15.70
2022-10-10T17:43:33.440Z,15.60
2022-10-10T17:46:32.710Z,15.60
2022-10-10T17:48:53.398Z,15.50
2022-10-10T17:51:23.843Z,15.50
2022-10-10T17:53:51.367Z,15.40
2022-10-10T17:56:21.450Z,15.20
2022-10-10T17:58:50.221Z,15.20
2022-10-10T18:01:19.502Z,15.20
2022-10-10T18:03:48.086Z,15.00
2022-10-10T18:06:20.606Z,14.90
2022-10-10T18:08:49.766Z,14.90
2022-10-10T18:11:23.595Z,14.70
2022-10-10T18:13:52.021Z,14.70
2022-10-10T18:16:22.393Z,14.70
2022-10-10T18:18:51.964Z,14.60
2022-10-10T18:21:21.708Z,14.50
2022-10-10T18:23:49.105Z,14.50
2022-10-10T18:26:17.894Z,14.40
2022-10-10T18:28:45.290Z,14.40
2022-10-10T18:31:15.566Z,14.40
2022-10-10T18:33:46.767Z,14.30
2022-10-10T18:36:16.393Z,13.70
2022-10-10T18:38:43.559Z,14.30
2022-10-10T18:41:13.833Z,14.20
2022-10-10T18:43:42.537Z,14.20
2022-10-10T18:46:11.758Z,14.10
2022-10-10T18:48:39.214Z,14.00
2022-10-10T18:51:09.665Z,14.00
2022-10-10T18:53:44.949Z,13.80
2022-10-10T18:56:14.625Z,13.40
2022-10-10T18:58:42.121Z,13.40
2022-10-10T19:01:12.625Z,13.30
2022-10-10T19:03:41.336Z,13.30
2022-10-10T19:06:11.709Z,13.40
2022-10-10T19:08:39.891Z,13.30
2022-10-10T19:11:08.653Z,13.30
2022-10-10T19:13:35.821Z,13.30
2022-10-10T19:16:04.920Z,13.30
2022-10-10T19:18:32.254Z,13.20
2022-10-10T19:21:00.890Z,13.30
2022-10-10T19:23:28.428Z,13.30
2022-10-10T19:25:55.869Z,13.20
2022-10-10T19:28:23.181Z,13.20
2022-10-10T19:30:50.325Z,13.20
2022-10-10T19:33:17.466Z,13.10
2022-10-10T19:35:52.104Z,13.00
2022-10-10T19:38:19.817Z,12.70
2022-10-10T19:40:47.983Z,12.70
2022-10-10T19:43:18.683Z,12.60
2022-10-10T19:45:48.293Z,12.50
2022-10-10T19:48:16.071Z,12.20
2022-10-10T19:50:44.352Z,12.20
2022-10-10T19:53:14.648Z,12.20
2022-10-10T19:55:41.875Z,12.20
2022-10-10T19:58:09.054Z,12.20
2022-10-10T20:00:39.308Z,12.30
2022-10-10T20:03:06.440Z,12.20
2022-10-10T20:05:33.576Z,12.20
2022-10-10T20:08:00.730Z,12.20
2022-10-10T20:10:27.943Z,12.20
2022-10-10T20:12:55.266Z,12.20
2022-10-10T20:15:22.459Z,12.10
2022-10-10T20:17:49.822Z,12.20
2022-10-10T20:20:17.126Z,12.20
2022-10-10T20:22:44.653Z,12.20
2022-10-10T20:25:12.063Z,12.20
2022-10-10T20:27:39.352Z,12.20
2022-10-10T20:30:07.148Z,12.10
2022-10-10T20:32:34.356Z,12.20
2022-10-10T20:35:02.421Z,12.10
2022-10-10T20:37:29.569Z,12.10
2022-10-10T20:39:56.746Z,12.10
2022-10-10T20:42:23.944Z,11.90
2022-10-10T20:44:51.130Z,11.80
2022-10-10T20:47:18.305Z,11.80
2022-10-10T20:49:45.454Z,11.80
2022-10-10T20:52:12.631Z,11.80
2022-10-10T20:54:39.899Z,11.70
2022-10-10T20:57:07.155Z,11.70
2022-10-10T20:59:34.293Z,11.70
